Data for 03/30/2009

Time Sea-Level Adjusted Pressure Absolute Pressure Temperature Relative Humidity Dew Point   
(mb) (inHg) (mb) (inHg) (C) (F) (%) (C) (F)
00:05 1013 29.91 843 24.89 -5 23 75 -8.8 16.1
00:10 1014 29.94 843 24.89 -4.9 23.1 74 -8.9 15.9
00:15 1014 29.94 843 24.89 -4.9 23.1 75 -8.7 16.3
00:20 1014 29.94 843 24.89 -4.8 23.3 74 -8.7 16.3
00:25 1014 29.94 843 24.89 -4.7 23.5 76 -8.3 17.1
00:30 1014 29.94 843 24.89 -4.7 23.5 74 -8.6 16.4
00:35 1014 29.94 843 24.89 -4.8 23.3 73 -8.9 15.9
00:40 1014 29.94 843 24.89 -4.9 23.2 72 -9.1 15.5
00:45 1014 29.94 843 24.89 -4.9 23.1 74 -8.9 16.1
00:50 1014 29.94 843 24.89 -5.1 22.9 75 -8.8 16.2
00:55 1014 29.94 843 24.89 -5.2 22.6 74 -9.1 15.6
01:00 1014 29.94 843 24.89 -5.3 22.5 72 -9.6 14.8
01:05 1014 29.94 843 24.89 -5.3 22.4 73 -9.5 14.9
01:10 1014 29.94 843 24.89 -5.5 22.1 72 -9.8 14.4
01:15 1014 29.94 843 24.89 -5.6 22 74 -9.5 14.8
01:20 1014 29.94 843 24.89 -5.6 21.9 73 -9.7 14.5
01:25 1014 29.94 843 24.89 -5.7 21.7 73 -9.9 14.3
01:30 1014 29.94 843 24.89 -5.7 21.7 72 -10 14
01:35 1014 29.94 843 24.89 -5.6 21.9 70 -10.2 13.6
01:40 1014 29.94 843 24.89 -5.6 21.9 71 -10.1 13.8
01:45 1014 29.94 843 24.89 -5.7 21.8 72 -10 14.1
01:50 1014 29.94 843 24.89 -5.6 21.9 72 -9.9 14.2
01:55 1014 29.94 844 24.92 -5.7 21.7 75 -9.5 14.8
02:00 1014 29.94 844 24.92 -5.8 21.6 71 -10.2 13.6
02:05 1015 29.97 844 24.92 -5.7 21.7 72 -9.9 14.1
02:10 1015 29.97 844 24.92 -5.7 21.8 72 -9.9 14.2
02:15 1015 29.97 844 24.92 -5.7 21.8 74 -9.7 14.6
02:20 1015 29.97 844 24.92 -5.8 21.6 77 -9.2 15.4
02:25 1015 29.97 844 24.92 -5.9 21.4 80 -8.9 16
02:30 1015 29.97 844 24.92 -6.3 20.6 82 -8.9 16
02:35 1015 29.97 844 24.92 -6.6 20.2 82 -9.1 15.6
02:40 1015 29.97 844 24.92 -6.6 20.1 81 -9.3 15.2
02:45 1015 29.97 844 24.92 -6.5 20.2 81 -9.3 15.3
02:50 1015 29.97 845 24.95 -6.6 20.1 80 -9.5 14.9
02:55 1015 29.97 845 24.95 -6.5 20.4 81 -9.2 15.4
03:00 1016 30 845 24.95 -6.5 20.4 80 -9.3 15.2
03:05 1016 30 845 24.95 -6.4 20.4 79 -9.5 14.9
03:10 1016 30 845 24.95 -6.2 20.9 76 -9.7 14.5
03:15 1016 30 845 24.95 -6 21.2 76 -9.6 14.8
03:20 1016 30 845 24.95 -5.8 21.5 76 -9.4 15.1
03:25 1016 30 845 24.95 -5.9 21.3 77 -9.4 15.1
03:30 1016 30 845 24.95 -6.3 20.6 79 -9.4 15.1
03:35 1016 30 845 24.95 -6.5 20.3 80 -9.4 15.1
03:40 1016 30 845 24.95 -6.5 20.2 80 -9.5 14.9
03:45 1016 30 845 24.95 -6.5 20.3 79 -9.5 14.8
03:50 1016 30 845 24.95 -6.5 20.4 79 -9.5 14.9
03:55 1016 30 845 24.95 -6.4 20.5 81 -9.2 15.5
04:00 1016 30 845 24.95 -6.7 20 86 -8.6 16.5
04:05 1016 30 845 24.95 -6.8 19.8 87 -8.6 16.5
04:10 1016 30 845 24.95 -6.7 19.9 87 -8.5 16.7
04:15 1016 30 845 24.95 -6.7 19.9 88 -8.3 17
04:20 1016 30 845 24.95 -6.6 20.1 88 -8.3 17
04:25 1016 30 845 24.95 -6.6 20.1 87 -8.4 16.9
04:30 1016 30 845 24.95 -6.6 20.1 86 -8.6 16.6
04:35 1016 30 845 24.95 -6.7 20 86 -8.6 16.6
04:40 1016 30 845 24.95 -6.7 20 86 -8.6 16.5
04:45 1016 30 846 24.98 -6.8 19.7 86 -8.9 16.1
04:50 1016 30 846 24.98 -7.1 19.3 86 -9 15.8
04:55 1017 30.03 846 24.98 -7.1 19.3 84 -9.3 15.2
05:00 1017 30.03 846 24.98 -6.9 19.5 83 -9.3 15.3
05:05 1017 30.03 846 24.98 -6.9 19.5 83 -9.3 15.3
05:10 1017 30.03 846 24.98 -6.9 19.6 83 -9.4 15.1
05:15 1017 30.03 846 24.98 -6.9 19.6 82 -9.4 15
05:20 1017 30.03 846 24.98 -6.8 19.8 81 -9.5 14.9
05:25 1017 30.03 846 24.98 -6.7 19.9 80 -9.7 14.6
05:30 1017 30.03 846 24.98 -6.7 19.9 79 -9.7 14.6
05:35 1017 30.03 846 24.98 -6.6 20.1 78 -9.9 14.2
05:40 1017 30.03 846 24.98 -6.5 20.3 77 -9.9 14.2
05:45 1017 30.03 847 25.01 -6.3 20.6 76 -9.8 14.3
05:50 1017 30.03 847 25.01 -6.4 20.5 78 -9.7 14.6
05:55 1018 30.06 847 25.01 -6.4 20.4 79 -9.6 14.7
06:00 1018 30.06 847 25.01 -6.5 20.3 81 -9.3 15.2
06:05 1018 30.06 847 25.01 -6.7 19.9 81 -9.5 15
06:10 1018 30.06 847 25.01 -6.8 19.8 82 -9.3 15.2
06:15 1018 30.06 847 25.01 -6.8 19.7 82 -9.4 15.1
06:20 1018 30.06 847 25.01 -6.9 19.6 82 -9.4 15.1
06:25 1018 30.06 847 25.01 -6.8 19.7 83 -9.3 15.3
06:30 1018 30.06 847 25.01 -6.7 19.9 82 -9.3 15.3
06:35 1018 30.06 847 25.01 -6.7 19.9 83 -9.2 15.5
06:40 1018 30.06 847 25.01 -6.8 19.7 84 -9.1 15.6
06:45 1018 30.06 847 25.01 -6.9 19.5 84 -9.1 15.6
06:50 1018 30.06 847 25.01 -7.1 19.3 85 -9.1 15.6
06:55 1018 30.06 847 25.01 -7.2 19.1 86 -9.1 15.6
07:00 1018 30.06 847 25.01 -7.3 18.9 86 -9.2 15.5
07:05 1018 30.06 847 25.01 -7.4 18.8 86 -9.3 15.3
07:10 1018 30.06 847 25.01 -7.4 18.7 87 -9.2 15.4
07:15 1018 30.06 847 25.01 -7.4 18.6 87 -9.3 15.3
07:20 1018 30.06 847 25.01 -7.5 18.4 87 -9.3 15.2
07:25 1018 30.06 847 25.01 -7.8 18.1 87 -9.6 14.7
07:30 1018 30.06 847 25.01 -8.2 17.2 88 -9.8 14.4
07:35 1018 30.06 847 25.01 -8.3 17.1 89 -9.8 14.4
07:40 1018 30.06 847 25.01 -8.2 17.3 88 -9.7 14.5
07:45 1018 30.06 847 25.01 -8.1 17.4 87 -9.9 14.2
07:50 1018 30.06 847 25.01 -8.2 17.2 88 -9.8 14.3
07:55 1018 30.06 848 25.04 -8.2 17.3 90 -9.6 14.7
08:00 1018 30.06 848 25.04 -7.7 18.1 89 -9.3 15.3
08:05 1019 30.09 848 25.04 -7.1 19.2 89 -8.7 16.3
08:10 1019 30.09 848 25.04 -6.8 19.8 87 -8.5 16.6
08:15 1019 30.09 848 25.04 -6.5 20.3 86 -8.4 16.8
08:20 1019 30.09 848 25.04 -6.4 20.5 87 -8.3 17.1
08:25 1019 30.09 848 25.04 -6.2 20.9 86 -8.1 17.4
08:30 1019 30.09 848 25.04 -6 21.3 87 -7.8 17.9
08:35 1019 30.09 848 25.04 -5.6 22 85 -7.7 18.2
08:40 1019 30.09 848 25.04 -5.4 22.2 86 -7.4 18.7
08:45 1019 30.09 848 25.04 -5.4 22.3 87 -7.3 18.9
08:50 1019 30.09 848 25.04 -5.4 22.3 86 -7.4 18.7
08:55 1019 30.09 848 25.04 -5.6 21.8 87 -7.5 18.5
09:00 1019 30.09 848 25.04 -5.8 21.7 87 -7.5 18.5
09:05 1019 30.09 848 25.04 -5.6 21.8 87 -7.4 18.7
09:10 1019 30.09 848 25.04 -5.6 21.9 87 -7.4 18.7
09:15 1019 30.09 848 25.04 -5.3 22.5 88 -7 19.4
09:20 1019 30.09 848 25.04 -4.9 23.1 87 -6.8 19.7
09:25 1019 30.09 848 25.04 -5.1 22.8 87 -6.9 19.5
09:30 1019 30.09 848 25.04 -5.1 22.8 86 -7.1 19.2
09:35 1019 30.09 848 25.04 -4.7 23.6 85 -6.9 19.6
09:40 1019 30.09 848 25.04 -4.5 23.9 86 -6.6 20.2
09:45 1019 30.09 848 25.04 -4.6 23.7 84 -6.9 19.5
09:50 1019 30.09 848 25.04 -4.4 24.1 83 -6.8 19.8
09:55 1019 30.09 848 25.04 -4.5 24 84 -6.8 19.7
10:00 1019 30.09 848 25.04 -4.2 24.4 82 -6.8 19.7
10:05 1019 30.09 848 25.04 -4.1 24.7 81 -6.9 19.5
10:10 1019 30.09 848 25.04 -4.4 24.1 82 -6.9 19.5
10:15 1019 30.09 848 25.04 -4.6 23.7 83 -7.2 19.1
10:20 1019 30.09 848 25.04 -4.6 23.8 82 -7.3 18.9
10:25 1019 30.09 848 25.04 -4.5 23.9 81 -7.3 18.9
10:30 1019 30.09 848 25.04 -3.9 25 78 -7.2 19.1
10:35 1019 30.09 848 25.04 -4.2 24.4 78 -7.4 18.6
10:40 1019 30.09 848 25.04 -3.3 26.1 72 -7.6 18.4
10:45 1019 30.09 848 25.04 -2.8 26.9 70 -7.5 18.4
10:50 1019 30.09 848 25.04 -3.4 25.9 72 -7.7 18.1
10:55 1019 30.09 848 25.04 -3.7 25.4 70 -8.3 17
11:00 1019 30.09 848 25.04 -3.2 26.3 71 -7.7 18.2
11:05 1019 30.09 848 25.04 -3.7 25.4 71 -8.2 17.2
11:10 1019 30.09 848 25.04 -3.5 25.6 70 -8.2 17.2
11:15 1019 30.09 848 25.04 -4.2 24.4 73 -8.3 17
11:20 1019 30.09 848 25.04 -4.2 24.4 72 -8.6 16.5
11:25 1019 30.09 848 25.04 -3.7 25.3 67 -9 15.9
11:30 1019 30.09 848 25.04 -1.9 28.6 59 -8.9 16
11:35 1019 30.09 848 25.04 -1.1 30 58 -8.4 16.9
11:40 1019 30.09 848 25.04 -1.5 29.4 62 -7.9 17.7
11:45 1019 30.09 848 25.04 -1.2 29.8 56 -8.9 15.9
11:50 1019 30.09 848 25.04 -1.2 29.9 59 -8.2 17.2
11:55 1019 30.09 848 25.04 -1.4 29.5 58 -8.6 16.5
12:00 1019 30.09 848 25.04 -1.7 29 59 -8.7 16.3
12:05 1019 30.09 848 25.04 -1.9 28.5 59 -8.9 16
12:10 1019 30.09 848 25.04 -1.6 29.2 55 -9.6 14.8
12:15 1019 30.09 848 25.04 -1.2 29.9 55 -9.1 15.7
12:20 1019 30.09 848 25.04 -0.9 30.4 55 -8.8 16.1
12:25 1019 30.09 848 25.04 -0.5 31.1 52 -9.1 15.6
12:30 1019 30.09 848 25.04 -0.4 31.3 54 -8.6 16.5
12:35 1019 30.09 848 25.04 -0.6 31 56 -8.4 16.9
12:40 1019 30.09 848 25.04 -0.5 31.1 55 -8.3 17
12:45 1018 30.06 848 25.04 -0.7 30.8 57 -8.2 17.2
12:50 1018 30.06 848 25.04 -0.4 31.3 54 -8.7 16.4
12:55 1018 30.06 848 25.04 0.1 32.1 52 -8.7 16.3
13:00 1018 30.06 848 25.04 0.1 32.2 50 -9.2 15.5
13:05 1018 30.06 848 25.04 0.5 32.8 53 -8.1 17.5
13:10 1018 30.06 848 25.04 0.6 33.1 51 -8.5 16.8
13:15 1018 30.06 848 25.04 0.7 33.2 49 -8.9 16.1
13:20 1018 30.06 848 25.04 0.9 33.6 52 -8 17.6
13:25 1018 30.06 848 25.04 0.9 33.6 49 -8.7 16.4
13:30 1018 30.06 848 25.04 1 33.8 44 -9.8 14.3
13:35 1018 30.06 847 25.01 1.1 33.9 47 -9 15.9
13:40 1018 30.06 847 25.01 1.3 34.4 47 -8.8 16.1
13:45 1018 30.06 847 25.01 1.8 35.2 40 -10.5 13.1
13:50 1018 30.06 847 25.01 1.5 34.6 40 -10.8 12.5
13:55 1018 30.06 847 25.01 1 33.9 43 -10.1 13.9
14:00 1018 30.06 847 25.01 0.8 33.4 44 -10 13.9
14:05 1018 30.06 847 25.01 1.5 34.7 41 -10.5 13.1
14:10 1018 30.06 847 25.01 1.4 34.6 43 -9.9 14.1
14:15 1018 30.06 847 25.01 1 33.8 46 -9.4 15.1
14:20 1018 30.06 847 25.01 1.5 34.7 42 -10.1 13.8
14:25 1018 30.06 847 25.01 1.5 34.7 43 -9.8 14.4
14:30 1018 30.06 847 25.01 0.9 33.5 45 -9.8 14.3
14:35 1018 30.06 847 25.01 0.2 32.4 43 -10.8 12.5
14:40 1018 30.06 847 25.01 1.1 34 42 -10.4 13.3
14:45 1018 30.06 847 25.01 1.9 35.3 42 -9.8 14.3
14:50 1018 30.06 847 25.01 1 33.7 40 -11.2 11.8
14:55 1018 30.06 847 25.01 -0.3 31.5 43 -11.3 11.6
15:00 1018 30.06 847 25.01 0.2 32.4 42 -11.2 11.9
15:05 1018 30.06 847 25.01 0.7 33.3 45 -9.8 14.3
15:10 1018 30.06 847 25.01 0.4 32.8 44 -10.5 13.2
15:15 1018 30.06 847 25.01 0.1 32.1 45 -10.6 13
15:20 1018 30.06 847 25.01 0.3 32.6 47 -9.8 14.4
15:25 1017 30.03 847 25.01 1.1 33.9 39 -11.6 11.2
15:30 1017 30.03 847 25.01 0.9 33.5 40 -11.2 11.8
15:35 1017 30.03 847 25.01 0.5 32.8 38 -12.4 9.7
15:40 1017 30.03 846 24.98 1 33.7 40 -11.3 11.6
15:45 1017 30.03 846 24.98 0.6 33.1 38 -12.1 10.2
15:50 1017 30.03 846 24.98 1.4 34.6 35 -12.4 9.8
15:55 1017 30.03 846 24.98 2.1 35.7 34 -12.4 9.7
16:00 1017 30.03 846 24.98 0.8 33.4 42 -10.6 12.8
16:05 1017 30.03 846 24.98 1.2 34.2 35 -12.5 9.4
16:10 1017 30.03 846 24.98 1.8 35.3 36 -11.9 10.6
16:15 1017 30.03 846 24.98 1.2 34.1 38 -11.7 10.9
16:20 1017 30.03 846 24.98 1.4 34.5 39 -11.1 12.1
16:25 1017 30.03 846 24.98 2.4 36.3 35 -11.4 11.4
16:30 1017 30.03 846 24.98 2.8 37 34 -11.8 10.8
16:35 1017 30.03 846 24.98 2.3 36.1 37 -11 12.1
16:40 1017 30.03 846 24.98 2.6 36.7 34 -11.6 11.1
16:45 1017 30.03 846 24.98 2 35.5 35 -11.8 10.8
16:50 1017 30.03 846 24.98 1.5 34.6 40 -10.9 12.4
16:55 1017 30.03 846 24.98 1.6 34.9 37 -11.7 10.9
17:00 1017 30.03 846 24.98 1.7 35 36 -11.8 10.8
17:05 1017 30.03 846 24.98 1.3 34.3 39 -11.2 11.8
17:10 1017 30.03 846 24.98 1.8 35.2 37 -11.4 11.5
17:15 1017 30.03 846 24.98 1.6 34.9 37 -11.6 11.1
17:20 1016 30 846 24.98 1.5 34.7 38 -11.2 11.8
17:25 1017 30.03 846 24.98 1.2 34.2 40 -11.1 12.1
17:30 1017 30.03 846 24.98 1.3 34.3 37 -11.8 10.8
17:35 1017 30.03 846 24.98 1.9 35.5 39 -10.7 12.7
17:40 1017 30.03 846 24.98 2.4 36.3 37 -11 12.2
17:45 1017 30.03 846 24.98 2.1 35.8 39 -10.4 13.2
17:50 1017 30.03 846 24.98 2.1 35.7 40 -10.3 13.4
17:55 1016 30 846 24.98 2.1 35.8 39 -10.5 13.1
18:00 1016 30 846 24.98 2.3 36.1 38 -10.5 13
18:05 1016 30 846 24.98 2.3 36.2 39 -10.3 13.5
18:10 1016 30 846 24.98 2.4 36.2 39 -10.3 13.5
18:15 1016 30 846 24.98 2.5 36.5 37 -10.7 12.7
18:20 1016 30 846 24.98 2.6 36.7 38 -10.2 13.7
18:25 1016 30 846 24.98 2.7 36.8 38 -10.2 13.6
18:30 1016 30 846 24.98 2.3 36.1 40 -9.8 14.3
18:35 1016 30 846 24.98 2.1 35.7 42 -9.5 14.8
18:40 1016 30 846 24.98 1.9 35.4 43 -9.5 15
18:45 1016 30 846 24.98 1.4 34.5 44 -9.6 14.8
18:50 1016 30 846 24.98 0.8 33.4 47 -9.2 15.4
18:55 1016 30 845 24.95 0.6 33 48 -9.2 15.4
19:00 1016 30 845 24.95 0.3 32.5 49 -9.2 15.5
19:05 1016 30 845 24.95 0.2 32.4 51 -8.8 16.2
19:10 1016 30 845 24.95 0.3 32.5 52 -8.5 16.6
19:15 1016 30 845 24.95 0.2 32.4 49 -9.2 15.5
19:20 1016 30 845 24.95 0.3 32.5 50 -9 15.8
19:25 1016 30 845 24.95 0.3 32.6 52 -8.5 16.8
19:30 1016 30 845 24.95 0.3 32.5 51 -8.6 16.4
19:35 1016 30 845 24.95 0.3 32.5 52 -8.6 16.6
19:40 1016 30 845 24.95 0.1 32.2 55 -7.8 17.9
19:45 1016 30 845 24.95 0.1 32.1 56 -7.6 18.3
19:50 1016 30 845 24.95 -0.1 31.9 57 -7.5 18.4
19:55 1016 30 845 24.95 -0.1 31.9 57 -7.6 18.3
20:00 1015 29.97 845 24.95 -0.5 31.1 60 -7.4 18.6
20:05 1015 29.97 845 24.95 -1.2 29.8 61 -7.9 17.8
20:10 1015 29.97 845 24.95 -1.4 29.5 61 -8 17.6
20:15 1015 29.97 845 24.95 -1 30.2 60 -7.7 18.1
20:20 1015 29.97 845 24.95 -0.7 30.7 61 -7.4 18.7
20:25 1015 29.97 845 24.95 -0.6 31 60 -7.5 18.5
20:30 1015 29.97 845 24.95 -0.5 31.1 58 -7.7 18.1
20:35 1015 29.97 845 24.95 -0.5 31.1 57 -8 17.5
20:40 1015 29.97 845 24.95 -0.5 31.1 57 -8.1 17.5
20:45 1015 29.97 845 24.95 -0.5 31 57 -7.9 17.7
20:50 1015 29.97 845 24.95 -0.5 31.1 55 -8.5 16.8
20:55 1015 29.97 845 24.95 -0.6 30.9 56 -8.4 16.9
21:00 1015 29.97 844 24.92 -0.7 30.8 56 -8.4 16.8
21:05 1015 29.97 844 24.92 -0.8 30.6 58 -8.2 17.3
21:10 1015 29.97 844 24.92 -1 30.2 59 -8.1 17.4
21:15 1015 29.97 844 24.92 -1.2 29.9 59 -8.2 17.3
21:20 1015 29.97 844 24.92 -1.4 29.5 62 -7.9 17.8
21:25 1015 29.97 844 24.92 -1.5 29.2 62 -7.8 17.9
21:30 1015 29.97 844 24.92 -1.6 29.2 64 -7.6 18.4
21:35 1015 29.97 844 24.92 -1.4 29.6 64 -7.2 19
21:40 1015 29.97 844 24.92 -1.5 29.4 66 -7 19.4
21:45 1015 29.97 844 24.92 -1.5 29.3 67 -6.9 19.5
21:50 1015 29.97 844 24.92 -1.7 28.9 67 -7 19.4
21:55 1015 29.97 844 24.92 -2 28.4 67 -7.2 19
22:00 1015 29.97 844 24.92 -2 28.4 68 -7.1 19.1
22:05 1015 29.97 844 24.92 -2.1 28.2 68 -7.2 19
22:10 1015 29.97 844 24.92 -2.4 27.7 69 -7.3 18.9
22:15 1015 29.97 844 24.92 -2.4 27.6 70 -7.1 19.1
22:20 1015 29.97 845 24.95 -2.7 27.2 76 -6.3 20.6
22:25 1015 29.97 845 24.95 -2.7 27.1 74 -6.7 20
22:30 1016 30 845 24.95 -2.5 27.5 72 -6.9 19.6
22:35 1016 30 845 24.95 -2 28.4 71 -6.6 20.1
22:40 1015 29.97 845 24.95 -1.9 28.5 71 -6.5 20.4
22:45 1015 29.97 845 24.95 -1.8 28.7 71 -6.4 20.5
22:50 1015 29.97 845 24.95 -1.9 28.7 71 -6.4 20.5
22:55 1015 29.97 845 24.95 -1.6 29.1 71 -6.2 20.9
23:00 1016 30 845 24.95 -1.6 29.2 71 -6.1 21
23:05 1016 30 845 24.95 -1.7 29 72 -6.1 21
23:10 1016 30 845 24.95 -1.7 29 76 -5.4 22.3
23:15 1016 30 845 24.95 -1.9 28.6 81 -4.7 23.5
23:20 1016 30 845 24.95 -2.2 28 83 -4.7 23.5
23:25 1016 30 845 24.95 -2.3 27.9 84 -4.6 23.8
23:30 1016 30 845 24.95 -2.3 27.9 86 -4.3 24.3
23:35 1016 30 845 24.95 -2.4 27.7 87 -4.2 24.5
23:40 1016 30 845 24.95 -2.6 27.4 88 -4.3 24.3
23:45 1016 30 845 24.95 -2.8 26.9 89 -4.3 24.2
23:50 1016 30 845 24.95 -3 26.6 89 -4.6 23.7
23:55 1016 30 845 24.95 -3.1 26.5 90 -4.5 23.8
24:00 1016 30 845 24.95 -2.9 26.7 88 -4.6 23.6